Rae, Canada
Current Conditions -  °F | °C
As of 3:00 AM on Friday 21 Nov 2014 (Local Time) from CYZF Reporting Station
Overcast Overcast  
Wind Chill: -10°   Ceiling: 13000
Heat Index:   Visibility: 15mi
Dew Point:   Wind: 8mph
Humidity: 85%   Direction: 10°N
Pressure: 29.64"   Gusts: NA
Location:  62.83°N, 116.04°W
Report Text: CYZF 211000Z 01007KT 15SM OVC130 M16/M18 A2964 RMK AC8 SLP058
Loading
Personal Weather Stations






























Interactive Weather Map New forecast layout! Learn more

10-Day Weather Forecast

Advertisements
Track Severe Weather on mobile